KHOB/HOB METAR and TAF weather

Enter ICAO airport designator
Station Type Date Time Source
KHOB METAR 2019/07/17 11:50 UTC NOAA

KHOB 171150Z 15008KT 10SM SKC 24/17 A3005


Station Type Date Time Source
KHOB Decoded METAR 2019/07/17 11:50 UTC NOAA

Hobbs / Lea County, NM, United States (KHOB) 32-41N 103-13W
Jul 17, 2019 - 07:50 AM EDT / 2019.07.17 1150 UTC
Wind: from the SSE (150 degrees) at 9 MPH (8 KT):0
Visibility: 10 mile(s):0
Sky conditions: clear
Temperature: 75 F (24 C)
Dew Point: 62 F (17 C)
Relative Humidity: 64%
Pressure (altimeter): 30.05 in. Hg (1017 hPa)
ob: KHOB 171150Z 15008KT 10SM SKC 24/17 A3005
cycle: 12

Station Type Date Time Source
KHOB TAF 2019/07/17 12:30 UTC NOAA

TAF KHOB 171129Z 1712/1812 14010KT P6SM FEW120 BKN250
FM171500 15012G19KT P6SM SCT080 SCT250

Example: see airport list